Main page
METAR-TAF:

METAR-TAF

Airports :

Almería Airport

Almería, Spain

latitude: 36-51N, longitude: 002-23W, elevation: 15 m

Current weather observation

The report was made 31 minutes ago, at 02:30 UTC
Wind 4 kt from the Southeast
Temperature 25°C
Humidity 79%
Pressure 1007 hPa
Visibility: 9000 m

METAR: LEAM 150230Z AUTO 14004KT 9000 NSC 25/21 Q1007

Time: 05:01 (03:01 UTC)

Forecast

The report was made 4 hours and 1 minutes ago, at 23:00 UTC
Forecast valid from 15 at 00 UTC to 15 at 24 UTC
Wind 10 kt from the West/Southwest
Visibility 10 km or more
no clouds below 1500 m and no cumulonimbus
Becoming
from 15 at 03 UTC to 15 at 05 UTC
Wind 2 kt from variable directions
Becoming
from 15 at 08 UTC to 15 at 10 UTC
Wind 20 kt from the Southwest
Temporary
from 15 at 11 UTC to 15 at 18 UTC
Wind 22 kt from the Southwest with gusts up to 32 kt

TAF: LEAM 142300Z 1500/1524 25010KT CAVOK TX32/1509Z TN25/1505Z BECMG 1503/1505 VRB02KT BECMG 1508/1510 23020KT TEMPO 1511/1518 23022G32KT

Weather observations and forecasts of more than 4000 airports (METAR and TAF reports).

The available stations are represented by yellow and red dots on the map.

Hover mouse over dot to see the name of the station.

Then click to see weather observations and forecasts.

To change the map : click on the green buttons with a black cross to zoom in, on the green button with a dash to zoom out, or on the green arrows for adjacent maps.


METAR-TAF: